Time;durP1;ratioP1;P1;durP2;ratioP2;P2;SDS_P1;SDS_P2;PMS_P1;PMS_P2;Temp;Humidity;BMP_temperature;BMP_pressure;BME280_temperature;BME280_humidity;BME280_pressure;Samples;Min_cycle;Max_cycle;Signal;HPM_P1;HPM_P2
2022/01/15 00:01:41;;;;;;;49.60;19.73;;;1.60;99.90;;;;;;5031591;28;20030;-77
2022/01/15 00:04:07;;;;;;;50.50;21.70;;;-0.10;99.90;;;;;;5031714;28;20120;-77
2022/01/15 00:06:33;;;;;;;52.95;20.35;;;0.00;99.90;;;;;;5032145;28;20025;-77
2022/01/15 00:08:59;;;;;;;52.60;21.50;;;1.00;99.90;;;;;;5031309;28;20033;-76
2022/01/15 00:11:24;;;;;;;87.50;22.55;;;0.40;99.90;;;;;;5014080;28;20032;-76
2022/01/15 00:14:08;;;;;;;65.70;23.42;;;-0.10;99.90;;;;;;5030353;28;20395;-76
2022/01/15 00:16:45;;;;;;;50.67;22.55;;;0.00;99.90;;;;;;5031755;28;20082;-76
2022/01/15 00:19:14;;;;;;;56.42;21.73;;;-0.10;99.90;;;;;;5031050;28;20029;-78
2022/01/15 00:21:40;;;;;;;49.65;21.10;;;-0.10;99.90;;;;;;5033212;28;20033;-77
2022/01/15 00:24:07;;;;;;;48.15;22.58;;;-0.10;99.90;;;;;;5033297;28;20147;-77
2022/01/15 00:26:33;;;;;;;54.33;21.17;;;-0.20;99.90;;;;;;5033929;28;20059;-77
2022/01/15 00:28:59;;;;;;;62.00;21.60;;;0.20;99.90;;;;;;5033848;28;20030;-77
2022/01/15 00:31:26;;;;;;;45.10;21.33;;;-0.30;99.90;;;;;;5037063;28;20044;-77
2022/01/15 00:33:51;;;;;;;46.28;20.88;;;-0.30;99.90;;;;;;5037204;28;20122;-78
2022/01/15 00:36:17;;;;;;;63.85;21.95;;;-0.30;99.90;;;;;;5036907;28;20552;-77
2022/01/15 00:38:43;;;;;;;52.53;20.10;;;-0.30;99.90;;;;;;5036119;28;20025;-77
2022/01/15 00:41:09;;;;;;;46.53;19.83;;;-0.30;99.90;;;;;;5036914;28;20033;-77
2022/01/15 00:43:35;;;;;;;44.03;19.13;;;-0.40;99.90;;;;;;5036552;28;20490;-77
2022/01/15 00:46:01;;;;;;;52.38;19.92;;;-0.50;99.90;;;;;;5036821;28;20036;-77
2022/01/15 00:48:26;;;;;;;65.40;22.50;;;-0.40;99.90;;;;;;5037066;28;20117;-77
2022/01/15 00:50:52;;;;;;;70.10;20.90;;;-0.40;99.90;;;;;;5036809;28;20057;-78
2022/01/15 00:53:18;;;;;;;47.42;21.15;;;-0.60;99.90;;;;;;5036678;28;20557;-77
2022/01/15 00:55:44;;;;;;;52.67;20.20;;;-0.50;99.90;;;;;;5036331;28;20044;-77
2022/01/15 00:58:10;;;;;;;52.30;21.00;;;-0.50;99.90;;;;;;5036931;28;20446;-78
2022/01/15 01:00:35;;;;;;;50.72;21.27;;;-0.40;99.90;;;;;;5035521;28;20037;-77
2022/01/15 01:03:02;;;;;;;63.13;22.83;;;-0.40;99.90;;;;;;5035504;28;20032;-77
2022/01/15 01:05:27;;;;;;;44.03;20.88;;;-0.40;99.90;;;;;;5036108;28;20061;-77
2022/01/15 01:07:53;;;;;;;59.05;22.83;;;-0.50;99.90;;;;;;5035692;28;20521;-76
2022/01/15 01:23:20;;;;;;;76.68;22.05;;;-0.50;99.90;;;;;;5035613;28;20505;-76
2022/01/15 01:25:50;;;;;;;53.67;20.38;;;-0.60;99.90;;;;;;5034837;28;20033;-77
2022/01/15 01:28:58;;;;;;;68.78;23.08;;;-0.60;99.90;;;;;;5034770;28;20494;-76
2022/01/15 01:33:37;;;;;;;41.10;20.50;;;-0.70;99.90;;;;;;5034995;28;20458;-76
2022/01/15 01:36:18;;;;;;;55.92;22.33;;;-0.70;99.90;;;;;;5033131;28;20508;-77
2022/01/15 01:41:19;;;;;;;49.88;21.08;;;-0.70;99.90;;;;;;5034268;28;20046;-77
2022/01/15 01:48:40;;;;;;;44.65;19.17;;;0.70;99.90;;;;;;5014123;28;20391;-77
2022/01/15 01:51:07;;;;;;;49.50;20.85;;;-0.70;99.90;;;;;;5025110;28;20026;-76
2022/01/15 01:53:37;;;;;;;42.22;19.00;;;-0.60;99.90;;;;;;5034394;28;20029;-77
2022/01/15 01:56:04;;;;;;;61.08;21.83;;;-0.70;99.90;;;;;;5034080;28;20125;-76
2022/01/15 01:58:30;;;;;;;52.97;21.42;;;-0.70;99.90;;;;;;5033719;28;20033;-78
2022/01/15 02:00:55;;;;;;;47.10;21.02;;;-0.70;99.90;;;;;;5033874;28;20034;-75
2022/01/15 02:03:21;;;;;;;50.60;22.88;;;-0.70;99.90;;;;;;5034257;28;20037;-75
2022/01/15 02:05:47;;;;;;;49.50;20.77;;;-0.60;99.90;;;;;;5033992;28;20414;-78
2022/01/15 02:08:12;;;;;;;51.20;20.88;;;-0.60;99.90;;;;;;5033784;28;20030;-76
2022/01/15 02:10:38;;;;;;;47.13;20.40;;;-0.60;99.90;;;;;;5033457;28;20025;-76
2022/01/15 02:13:08;;;;;;;45.97;20.35;;;0.70;99.90;;;;;;5034037;28;20049;-77
2022/01/15 02:15:36;;;;;;;43.60;21.35;;;-0.60;99.90;;;;;;5033849;28;20060;-77
2022/01/15 02:18:02;;;;;;;45.85;21.38;;;-0.60;99.90;;;;;;5033775;28;20025;-77
2022/01/15 02:25:58;;;;;;;42.03;21.13;;;-0.70;99.90;;;;;;5033668;28;20091;-76
2022/01/15 02:28:26;;;;;;;47.90;21.45;;;-0.60;99.90;;;;;;5033256;28;20732;-75
2022/01/15 02:30:57;;;;;;;46.67;21.42;;;-0.80;99.90;;;;;;5032593;28;20029;-75
2022/01/15 02:33:23;;;;;;;47.80;21.63;;;-0.50;99.90;;;;;;5033614;28;20029;-75
2022/01/15 02:35:49;;;;;;;44.65;21.25;;;-0.50;99.90;;;;;;5033452;28;20155;-76
2022/01/15 02:38:15;;;;;;;42.83;20.45;;;-0.60;99.90;;;;;;5033553;28;20112;-75
2022/01/15 02:40:42;;;;;;;39.80;20.70;;;-0.70;99.90;;;;;;5032873;28;20040;-76
2022/01/15 02:43:12;;;;;;;46.60;21.65;;;-0.60;99.90;;;;;;5033639;28;20065;-76
2022/01/15 02:45:42;;;;;;;38.83;19.27;;;-0.50;99.90;;;;;;5033062;28;20656;-75
2022/01/15 02:48:12;;;;;;;44.85;20.92;;;-0.50;99.90;;;;;;5033233;28;20036;-75
2022/01/15 02:50:39;;;;;;;39.63;19.13;;;-0.60;99.90;;;;;;5031987;28;20028;-76
2022/01/15 02:53:05;;;;;;;40.75;20.40;;;-0.60;99.90;;;;;;5033319;28;20021;-76
2022/01/15 02:55:31;;;;;;;35.17;19.58;;;-0.60;99.90;;;;;;5033021;28;20497;-77
2022/01/15 02:57:57;;;;;;;42.00;20.95;;;0.00;99.90;;;;;;5033189;28;20029;-76
2022/01/15 03:00:24;;;;;;;39.85;20.42;;;-0.60;99.90;;;;;;5032353;28;20017;-76
2022/01/15 03:02:50;;;;;;;36.72;20.77;;;-0.70;99.90;;;;;;5033118;28;20033;-76
2022/01/15 03:05:16;;;;;;;37.83;19.85;;;-0.60;99.90;;;;;;5032983;28;20033;-76
2022/01/15 03:07:41;;;;;;;39.17;20.23;;;-0.60;99.90;;;;;;5033133;28;20030;-76
2022/01/15 03:10:08;;;;;;;40.28;20.40;;;-0.60;99.90;;;;;;5032411;28;20017;-77
2022/01/15 03:12:35;;;;;;;37.72;19.95;;;-0.60;99.90;;;;;;5032958;28;20039;-77
2022/01/15 03:15:02;;;;;;;42.80;21.80;;;-0.60;99.90;;;;;;5032357;28;20112;-77
2022/01/15 03:17:28;;;;;;;43.55;20.85;;;-0.60;99.90;;;;;;5032792;28;20030;-77
2022/01/15 03:19:54;;;;;;;45.25;21.73;;;-0.50;99.90;;;;;;5032077;28;21516;-77
2022/01/15 03:22:21;;;;;;;40.25;21.33;;;-0.50;99.90;;;;;;5032737;28;20072;-77
2022/01/15 03:24:47;;;;;;;43.00;21.48;;;-0.50;99.90;;;;;;5032607;28;20037;-76
2022/01/15 03:27:12;;;;;;;41.40;21.92;;;-0.60;99.90;;;;;;5032645;28;20029;-77
2022/01/15 03:29:38;;;;;;;39.38;20.75;;;-0.50;99.90;;;;;;5031702;28;20057;-77
2022/01/15 03:32:04;;;;;;;43.95;21.35;;;-0.50;99.90;;;;;;5032080;28;20512;-77
2022/01/15 03:34:30;;;;;;;44.10;22.08;;;-0.60;99.90;;;;;;5032118;28;20036;-78
2022/01/15 03:36:56;;;;;;;42.60;21.27;;;-0.70;99.90;;;;;;5032641;28;20506;-76
2022/01/15 03:39:21;;;;;;;45.60;22.67;;;-0.70;99.90;;;;;;5032168;28;20038;-76
2022/01/15 03:41:47;;;;;;;46.33;22.17;;;-0.60;99.90;;;;;;5032744;28;20482;-76
2022/01/15 03:44:13;;;;;;;42.05;22.20;;;-0.70;99.90;;;;;;5032330;28;20111;-78
2022/01/15 03:46:38;;;;;;;48.38;23.00;;;-0.70;99.90;;;;;;5032343;28;20104;-78
2022/01/15 03:49:04;;;;;;;46.22;22.83;;;-0.60;99.90;;;;;;5031796;28;20128;-77
2022/01/15 03:51:30;;;;;;;38.53;20.52;;;-0.60;99.90;;;;;;5031313;28;20553;-78
2022/01/15 03:53:55;;;;;;;41.30;21.42;;;-0.60;99.90;;;;;;5032171;28;20064;-77
2022/01/15 03:56:21;;;;;;;42.63;21.58;;;-0.60;99.90;;;;;;5032265;28;20024;-77
2022/01/15 03:58:46;;;;;;;44.75;21.80;;;-0.70;99.90;;;;;;5031148;28;20449;-78
2022/01/15 04:01:12;;;;;;;39.13;20.60;;;-0.60;99.90;;;;;;5030534;28;20037;-77
2022/01/15 04:03:38;;;;;;;39.28;20.50;;;-0.70;99.90;;;;;;5030225;28;20088;-78
2022/01/15 04:06:04;;;;;;;44.00;21.13;;;-0.70;99.90;;;;;;5032216;28;20039;-77
2022/01/15 04:08:30;;;;;;;39.63;20.80;;;-0.70;99.90;;;;;;5031603;28;20064;-78
2022/01/15 04:10:56;;;;;;;43.90;21.67;;;-0.70;99.90;;;;;;5031989;28;20060;-78
2022/01/15 04:13:21;;;;;;;36.47;21.02;;;-0.60;99.90;;;;;;5032046;28;20044;-77
2022/01/15 04:15:53;;;;;;;42.55;21.98;;;-0.60;99.90;;;;;;5031430;28;20029;-77
2022/01/15 04:18:21;;;;;;;41.60;22.13;;;-0.60;99.90;;;;;;5032167;28;20033;-77
2022/01/15 04:20:47;;;;;;;45.45;22.33;;;-0.70;99.90;;;;;;5031730;28;20037;-76
2022/01/15 04:23:13;;;;;;;40.55;20.65;;;-0.60;99.90;;;;;;5032155;28;20022;-77
2022/01/15 04:25:38;;;;;;;45.53;22.35;;;-0.60;99.90;;;;;;5031685;28;20104;-77
2022/01/15 04:28:08;;;;;;;39.35;21.17;;;-0.70;99.90;;;;;;5032069;28;20617;-77
2022/01/15 04:30:34;;;;;;;34.95;21.23;;;-0.60;99.90;;;;;;5031113;28;20021;-77
2022/01/15 04:33:00;;;;;;;37.00;20.83;;;-0.60;99.90;;;;;;5032167;28;20028;-77
2022/01/15 04:35:26;;;;;;;41.22;21.25;;;-0.60;99.90;;;;;;5030640;28;20041;-77
2022/01/15 04:37:57;;;;;;;37.88;21.80;;;-0.70;99.90;;;;;;5032249;28;20115;-76
2022/01/15 04:40:22;;;;;;;36.90;22.17;;;-0.80;99.90;;;;;;5031153;28;20036;-77
2022/01/15 04:42:48;;;;;;;40.78;22.63;;;0.70;99.90;;;;;;5031957;28;20029;-77
2022/01/15 04:45:14;;;;;;;39.10;20.33;;;-0.50;99.90;;;;;;5031517;28;20021;-77
2022/01/15 04:47:40;;;;;;;36.47;21.00;;;0.90;99.90;;;;;;5031959;28;20018;-77
2022/01/15 04:50:09;;;;;;;40.28;21.35;;;-0.60;99.90;;;;;;5031286;28;20028;-76
2022/01/15 04:52:36;;;;;;;36.90;20.83;;;-0.60;99.90;;;;;;5031867;28;20036;-77
2022/01/15 04:55:03;;;;;;;36.03;20.83;;;-0.70;99.90;;;;;;5031498;28;20021;-75
2022/01/15 04:57:29;;;;;;;40.00;21.58;;;-0.70;99.90;;;;;;5031707;28;20075;-77
2022/01/15 04:59:54;;;;;;;36.20;20.30;;;0.50;99.90;;;;;;5030979;28;20026;-78
2022/01/15 05:02:20;;;;;;;39.05;21.70;;;-0.60;99.90;;;;;;5031229;28;20124;-76
2022/01/15 05:04:46;;;;;;;37.25;21.00;;;-0.60;99.90;;;;;;5030704;28;20025;-76
2022/01/15 05:07:11;;;;;;;42.50;20.83;;;-0.60;99.90;;;;;;5031400;28;20040;-77
2022/01/15 05:09:38;;;;;;;39.83;20.25;;;-0.60;99.90;;;;;;5030880;28;20033;-78
2022/01/15 05:12:10;;;;;;;38.00;20.63;;;0.50;99.90;;;;;;5031660;28;20075;-78
2022/01/15 05:14:36;;;;;;;;;;;-0.60;99.90;;;;;;5032906;28;20025;-77
2022/01/15 05:17:02;;;;;;;36.67;19.95;;;-0.50;99.90;;;;;;5034594;28;19905;-77
2022/01/15 05:19:28;;;;;;;40.78;20.17;;;-0.60;99.90;;;;;;5034804;28;20029;-77
2022/01/15 05:21:56;;;;;;;39.55;19.73;;;-0.60;99.90;;;;;;5035025;28;20040;-77
2022/01/15 05:24:22;;;;;;;43.58;21.50;;;-0.70;99.90;;;;;;5035108;28;20397;-78
2022/01/15 05:26:48;;;;;;;39.17;21.17;;;-0.70;99.90;;;;;;5034756;28;20026;-77
2022/01/15 05:29:14;;;;;;;38.72;19.98;;;-0.70;99.90;;;;;;5034277;28;20040;-77
2022/01/15 05:31:40;;;;;;;41.58;21.25;;;-0.60;99.90;;;;;;5034612;28;20108;-77
2022/01/15 05:34:05;;;;;;;40.72;20.40;;;-0.60;99.90;;;;;;5034097;28;20061;-78
2022/01/15 05:36:31;;;;;;;40.72;20.08;;;-0.70;99.90;;;;;;5034818;28;20064;-76
2022/01/15 05:38:57;;;;;;;42.65;21.38;;;-0.60;99.90;;;;;;5032907;28;20033;-76
2022/01/15 05:41:22;;;;;;;43.53;21.13;;;-0.60;99.90;;;;;;5033431;28;20091;-77
2022/01/15 05:43:48;;;;;;;39.00;21.23;;;0.10;99.90;;;;;;5035017;28;20031;-77
2022/01/15 05:46:14;;;;;;;38.95;20.55;;;-0.60;99.90;;;;;;5034636;28;20571;-77
2022/01/15 05:48:39;;;;;;;37.20;19.40;;;-0.60;99.90;;;;;;5034085;28;20026;-76
2022/01/15 05:51:05;;;;;;;44.15;22.30;;;-0.60;99.90;;;;;;5034705;28;20033;-77
2022/01/15 05:53:31;;;;;;;37.30;20.40;;;-0.50;99.90;;;;;;5035310;28;20026;-77
2022/01/15 05:55:57;;;;;;;40.22;21.17;;;-0.30;99.90;;;;;;5034936;28;20026;-77
2022/01/15 05:58:22;;;;;;;37.88;19.70;;;-0.70;99.90;;;;;;5034408;28;20417;-77
2022/01/15 06:00:48;;;;;;;34.13;19.70;;;-0.50;99.90;;;;;;5034554;28;20043;-77
2022/01/15 06:03:14;;;;;;;40.45;21.85;;;-0.60;99.90;;;;;;5034794;28;20037;-76
2022/01/15 06:05:39;;;;;;;38.53;19.58;;;-0.40;99.90;;;;;;5035737;28;20116;-77
2022/01/15 06:08:05;;;;;;;42.88;20.95;;;-0.50;99.90;;;;;;5035012;28;20064;-77
2022/01/15 06:10:30;;;;;;;39.67;19.70;;;-0.50;99.90;;;;;;5034120;28;20041;-77
2022/01/15 06:12:56;;;;;;;40.78;20.58;;;1.00;99.90;;;;;;5035614;28;20037;-78
2022/01/15 06:15:22;;;;;;;38.35;20.33;;;-0.30;99.90;;;;;;5035174;28;20033;-76
2022/01/15 06:17:47;;;;;;;40.17;19.75;;;-0.50;99.90;;;;;;5034575;28;20033;-76
2022/01/15 06:20:15;;;;;;;38.88;19.35;;;-0.40;99.90;;;;;;5033801;28;20052;-76
2022/01/15 06:22:41;;;;;;;36.88;19.02;;;-0.40;99.90;;;;;;5034964;28;20032;-75
2022/01/15 06:25:08;;;;;;;34.58;19.25;;;-0.30;99.90;;;;;;5029134;28;20025;-76
2022/01/15 06:27:33;;;;;;;37.10;19.20;;;-0.50;99.90;;;;;;5025157;28;20108;-75
2022/01/15 06:30:00;;;;;;;33.72;18.10;;;-0.40;99.90;;;;;;5027410;28;20554;-76
2022/01/15 06:32:27;;;;;;;35.20;18.75;;;-0.40;99.90;;;;;;5031491;28;20371;-76
2022/01/15 06:34:53;;;;;;;33.97;17.45;;;-0.30;99.90;;;;;;5023140;28;20439;-77
2022/01/15 06:37:19;;;;;;;34.28;19.15;;;-0.20;99.90;;;;;;5023130;28;20489;-77
2022/01/15 06:39:45;;;;;;;34.63;19.00;;;-0.20;99.90;;;;;;5032834;28;20103;-77
2022/01/15 06:42:11;;;;;;;40.90;20.77;;;-0.20;99.90;;;;;;5033759;28;20026;-77
2022/01/15 06:44:37;;;;;;;51.08;25.80;;;-0.30;99.90;;;;;;5033294;28;20034;-77
2022/01/15 06:47:03;;;;;;;45.75;24.90;;;-0.10;99.90;;;;;;5015046;28;20041;-76
2022/01/15 06:49:29;;;;;;;36.13;20.75;;;-0.20;99.90;;;;;;5032738;28;20045;-77
2022/01/15 06:51:54;;;;;;;34.35;18.92;;;-0.20;99.90;;;;;;5033523;28;20096;-74
2022/01/15 06:54:20;;;;;;;33.25;17.15;;;-0.10;99.90;;;;;;5033243;28;20030;-76
2022/01/15 06:56:45;;;;;;;35.45;19.17;;;-0.20;99.90;;;;;;5033511;28;20066;-76
2022/01/15 06:59:11;;;;;;;35.22;18.25;;;-0.20;99.90;;;;;;5033756;28;20568;-76
2022/01/15 07:01:37;;;;;;;60.58;27.75;;;-0.20;99.90;;;;;;5030639;28;20113;-77
2022/01/15 07:04:02;;;;;;;40.00;20.95;;;-0.30;99.90;;;;;;5016440;28;20091;-77
2022/01/15 07:06:28;;;;;;;31.83;17.73;;;-0.20;99.90;;;;;;5033134;28;20403;-77
2022/01/15 07:08:53;;;;;;;32.00;17.83;;;-0.10;99.90;;;;;;5032423;28;20032;-76
2022/01/15 07:11:19;;;;;;;29.52;17.02;;;-0.10;99.90;;;;;;5033115;28;20029;-75
2022/01/15 07:13:45;;;;;;;29.83;17.05;;;-0.10;99.90;;;;;;5032035;28;20506;-75
2022/01/15 07:16:10;;;;;;;32.08;17.60;;;-0.20;99.90;;;;;;5031172;28;20030;-76
2022/01/15 07:18:36;;;;;;;34.80;17.88;;;1.40;99.90;;;;;;5032436;28;20482;-75
2022/01/15 07:21:02;;;;;;;33.80;19.08;;;-0.20;99.90;;;;;;5032420;28;20048;-75
2022/01/15 07:23:27;;;;;;;30.00;17.33;;;-0.10;99.90;;;;;;5032809;28;20034;-75
2022/01/15 07:25:53;;;;;;;27.77;16.70;;;-0.30;99.90;;;;;;5032597;28;20383;-76
2022/01/15 07:28:19;;;;;;;27.40;15.98;;;-0.20;99.90;;;;;;5032542;28;20065;-76
2022/01/15 07:30:45;;;;;;;30.02;16.77;;;-0.10;99.90;;;;;;5031792;28;20134;-76
2022/01/15 07:33:12;;;;;;;31.50;16.35;;;-0.20;99.90;;;;;;5032368;28;20025;-76
2022/01/15 07:35:38;;;;;;;29.83;16.42;;;0.00;99.90;;;;;;5030929;28;20120;-75
2022/01/15 07:38:04;;;;;;;30.67;17.25;;;-0.10;99.90;;;;;;5032403;28;20048;-75
2022/01/15 07:40:29;;;;;;;34.15;19.15;;;-0.10;99.90;;;;;;5032615;28;20064;-77
2022/01/15 07:42:55;;;;;;;31.90;17.60;;;0.00;99.90;;;;;;5032531;28;20033;-77
2022/01/15 07:45:21;;;;;;;30.45;17.10;;;0.00;99.90;;;;;;5049355;22;20045;-80
2022/01/15 07:47:46;;;;;;;32.35;17.88;;;0.10;99.90;;;;;;5035100;28;20397;-81
2022/01/15 07:50:23;;;;;;;29.73;16.85;;;0.00;99.90;;;;;;5035750;28;20026;-80
2022/01/15 07:52:51;;;;;;;33.45;18.58;;;0.00;99.90;;;;;;5043442;28;20044;-80
2022/01/15 07:55:16;;;;;;;28.70;17.27;;;0.10;99.90;;;;;;5026820;28;20045;-80
2022/01/15 07:57:43;;;;;;;30.13;16.95;;;0.20;99.90;;;;;;5022375;28;20544;-80
2022/01/15 08:00:11;;;;;;;29.45;16.55;;;0.20;99.90;;;;;;5020608;28;20082;-80
2022/01/15 08:02:36;;;;;;;27.95;16.25;;;0.20;99.90;;;;;;5023254;28;20026;-80
2022/01/15 08:05:02;;;;;;;30.75;16.77;;;0.30;99.90;;;;;;5020746;28;20030;-80
2022/01/15 08:07:28;;;;;;;29.55;16.77;;;0.30;99.90;;;;;;5017249;28;20023;-80
2022/01/15 08:09:53;;;;;;;31.98;17.15;;;0.30;99.90;;;;;;5015310;28;20113;-80
2022/01/15 08:12:21;;;;;;;31.15;16.77;;;0.30;99.90;;;;;;5021011;28;20093;-79
2022/01/15 08:14:47;;;;;;;29.70;16.10;;;0.30;99.90;;;;;;5018877;28;20026;-78
2022/01/15 08:17:13;;;;;;;27.90;16.80;;;0.40;99.90;;;;;;5026017;28;20025;-79
2022/01/15 08:19:38;;;;;;;28.98;16.33;;;0.40;99.90;;;;;;4995030;28;20038;-76
2022/01/15 08:22:04;;;;;;;31.50;18.02;;;0.50;99.90;;;;;;5005429;28;20038;-77
2022/01/15 08:24:29;;;;;;;30.50;17.10;;;0.50;99.90;;;;;;5010817;28;20072;-77
2022/01/15 08:26:55;;;;;;;28.83;16.75;;;0.50;99.90;;;;;;5012791;28;20064;-77
2022/01/15 08:29:21;;;;;;;27.98;16.25;;;0.60;99.90;;;;;;5011894;28;20026;-77
2022/01/15 08:31:46;;;;;;;30.05;16.35;;;0.60;99.90;;;;;;4996222;28;20514;-77
2022/01/15 08:34:12;;;;;;;31.40;17.50;;;0.70;99.90;;;;;;5014135;28;21556;-77
2022/01/15 08:36:37;;;;;;;31.25;17.60;;;0.60;99.90;;;;;;5013759;28;20038;-77
2022/01/15 08:39:10;;;;;;;28.65;15.45;;;0.70;99.90;;;;;;5011948;28;20053;-78
2022/01/15 08:41:36;;;;;;;29.17;16.15;;;0.70;99.90;;;;;;5011129;28;20116;-78
2022/01/15 08:44:03;;;;;;;28.50;16.15;;;0.80;99.90;;;;;;5012128;28;20068;-77
2022/01/15 08:46:28;;;;;;;28.42;15.45;;;0.80;99.90;;;;;;5011846;28;20036;-78
2022/01/15 08:48:54;;;;;;;27.30;14.90;;;1.70;99.90;;;;;;5014205;28;20026;-79
2022/01/15 08:51:20;;;;;;;28.55;16.00;;;0.90;99.90;;;;;;5017296;28;20034;-78
2022/01/15 08:53:45;;;;;;;31.10;16.67;;;0.80;99.90;;;;;;5018174;28;20689;-78
2022/01/15 08:56:11;;;;;;;30.13;16.27;;;0.90;99.90;;;;;;5016430;28;20433;-78
2022/01/15 08:58:37;;;;;;;26.33;14.85;;;0.90;99.90;;;;;;5015366;28;20038;-78
2022/01/15 09:01:04;;;;;;;31.95;17.05;;;1.10;99.90;;;;;;5015964;28;20033;-77
2022/01/15 09:03:30;;;;;;;29.55;15.63;;;1.00;99.90;;;;;;5018155;28;20209;-78
2022/01/15 09:05:56;;;;;;;30.58;16.50;;;1.00;99.90;;;;;;5016461;28;20660;-78
2022/01/15 09:08:24;;;;;;;33.90;17.70;;;1.00;99.90;;;;;;5032498;28;20037;-78
2022/01/15 09:10:54;;;;;;;28.83;15.52;;;1.10;99.90;;;;;;5018092;28;20584;-79
2022/01/15 09:13:20;;;;;;;30.45;16.02;;;1.00;99.90;;;;;;5018290;28;20034;-78
2022/01/15 09:15:46;;;;;;;33.13;17.50;;;1.00;99.90;;;;;;5000644;28;20025;-77
2022/01/15 09:18:15;;;;;;;31.05;17.17;;;1.00;99.90;;;;;;4998974;28;20033;-77
2022/01/15 09:20:41;;;;;;;35.47;19.00;;;1.40;99.90;;;;;;4995305;28;20034;-75
2022/01/15 09:23:06;;;;;;;31.02;17.20;;;2.40;99.90;;;;;;4995456;28;20118;-77
2022/01/15 09:25:32;;;;;;;33.50;16.85;;;3.60;99.90;;;;;;4995933;28;20479;-77
2022/01/15 09:30:42;;;;;;;33.30;16.83;;;1.50;99.90;;;;;;5015715;28;20152;-77
2022/01/15 09:33:07;;;;;;;31.50;17.38;;;1.60;99.90;;;;;;5014309;28;20471;-77
2022/01/15 09:35:34;;;;;;;31.10;17.02;;;1.50;99.90;;;;;;5015311;28;20026;-77
2022/01/15 09:38:00;;;;;;;29.45;17.23;;;1.30;99.90;;;;;;5015529;28;20038;-77
2022/01/15 09:40:27;;;;;;;31.13;16.45;;;1.60;99.90;;;;;;5014559;28;20097;-77
2022/01/15 09:42:54;;;;;;;31.85;17.50;;;1.70;99.90;;;;;;5015093;28;20034;-77
2022/01/15 09:45:23;;;;;;;30.92;16.65;;;1.70;99.90;;;;;;5014590;28;20034;-77
2022/01/15 09:47:57;;;;;;;33.17;16.65;;;1.60;99.90;;;;;;5014363;28;20030;-75
2022/01/15 09:50:24;;;;;;;30.58;17.27;;;1.70;99.90;;;;;;5014478;28;20045;-75
2022/01/15 09:52:52;;;;;;;28.15;15.90;;;1.80;99.90;;;;;;5014788;28;20417;-75
2022/01/15 09:55:18;;;;;;;31.13;17.45;;;1.80;99.90;;;;;;5014503;28;20076;-75
2022/01/15 09:57:43;;;;;;;33.83;17.02;;;1.90;99.90;;;;;;5012611;28;20033;-75
2022/01/15 10:00:15;;;;;;;31.33;16.73;;;2.80;99.90;;;;;;5010956;28;20096;-75
2022/01/15 10:02:42;;;;;;;34.88;17.80;;;1.90;99.90;;;;;;5014031;28;20120;-75
2022/01/15 10:05:09;;;;;;;30.33;16.88;;;2.00;99.90;;;;;;5013053;28;20088;-75
2022/01/15 10:07:35;;;;;;;30.02;16.95;;;1.90;99.90;;;;;;5014050;28;20061;-75
2022/01/15 10:10:16;;;;;;;32.92;18.25;;;3.10;99.90;;;;;;5013667;28;20053;-75
2022/01/15 10:12:44;;;;;;;29.38;16.60;;;2.10;99.90;;;;;;5013045;28;20026;-75
2022/01/15 10:15:11;;;;;;;32.35;17.70;;;2.00;99.90;;;;;;5012877;28;20030;-75
2022/01/15 10:17:39;;;;;;;29.42;18.23;;;2.10;99.90;;;;;;5012901;28;20030;-75
2022/01/15 10:20:14;;;;;;;33.00;18.13;;;3.40;99.90;;;;;;5013516;28;20517;-74
2022/01/15 10:22:42;;;;;;;35.95;18.95;;;2.20;99.90;;;;;;5012705;28;20044;-74
2022/01/15 10:25:11;;;;;;;31.92;18.25;;;2.20;99.90;;;;;;5013583;28;20505;-74
2022/01/15 10:27:42;;;;;;;32.85;19.27;;;2.30;99.90;;;;;;5014015;28;20030;-74
2022/01/15 10:30:10;;;;;;;35.22;18.30;;;2.30;99.90;;;;;;5011998;28;20040;-77
2022/01/15 10:33:00;;;;;;;31.90;18.60;;;2.30;99.90;;;;;;5013536;28;20031;-74
2022/01/15 10:35:39;;;;;;;34.92;18.67;;;3.80;99.90;;;;;;5012352;28;20120;-74
2022/01/15 10:38:10;;;;;;;43.13;22.13;;;2.40;99.90;;;;;;5013698;28;20030;-74
2022/01/15 10:40:58;;;;;;;42.80;23.02;;;2.50;99.90;;;;;;5001818;28;20065;-73
2022/01/15 10:43:33;;;;;;;33.28;19.05;;;2.50;99.90;;;;;;4993403;28;20027;-73
2022/01/15 10:46:01;;;;;;;35.08;18.40;;;2.50;99.90;;;;;;4995086;28;20113;-74
2022/01/15 10:48:34;;;;;;;33.20;18.65;;;2.60;99.90;;;;;;4992951;28;20602;-75
2022/01/15 10:51:05;;;;;;;35.92;20.08;;;3.60;99.90;;;;;;5008772;28;20072;-75
2022/01/15 10:53:42;;;;;;;36.97;20.02;;;2.90;99.90;;;;;;5008133;28;20025;-76
2022/01/15 10:56:11;;;;;;;35.53;20.30;;;4.50;99.90;;;;;;4991659;28;20518;-76
2022/01/15 10:58:37;;;;;;;35.53;20.05;;;2.80;99.90;;;;;;5011771;28;20033;-75
2022/01/15 11:01:04;;;;;;;40.38;20.33;;;2.80;99.90;;;;;;5009096;28;20490;-77
2022/01/15 11:03:37;;;;;;;38.75;20.48;;;2.90;99.90;;;;;;5008673;28;20129;-76
2022/01/15 11:06:03;;;;;;;34.00;19.05;;;2.90;99.90;;;;;;4989522;28;20026;-74
2022/01/15 11:08:34;;;;;;;38.95;22.30;;;2.80;99.90;;;;;;4988627;28;20034;-75
2022/01/15 11:11:06;;;;;;;34.83;19.40;;;2.80;99.90;;;;;;4990890;28;20034;-75
2022/01/15 11:13:36;;;;;;;34.97;18.95;;;3.70;99.90;;;;;;4996939;28;20084;-74
2022/01/15 11:16:05;;;;;;;33.42;18.65;;;3.20;99.90;;;;;;5012143;28;20030;-75
2022/01/15 11:18:39;;;;;;;33.92;19.55;;;3.00;99.90;;;;;;5012472;28;20026;-73
2022/01/15 11:21:08;;;;;;;31.65;19.77;;;3.00;99.90;;;;;;5012752;28;20040;-74
2022/01/15 11:23:35;;;;;;;34.50;19.75;;;3.10;99.90;;;;;;5011739;28;20034;-73
2022/01/15 11:26:06;;;;;;;32.85;20.10;;;3.00;99.90;;;;;;5027812;28;20030;-74
2022/01/15 11:28:35;;;;;;;39.97;20.95;;;3.00;99.90;;;;;;5002299;28;20052;-74
2022/01/15 11:31:07;;;;;;;37.85;20.17;;;3.00;99.90;;;;;;4993035;28;20054;-74
2022/01/15 11:33:35;;;;;;;34.80;19.85;;;3.10;99.90;;;;;;4993712;28;20076;-74
2022/01/15 11:36:03;;;;;;;36.97;20.98;;;4.40;99.90;;;;;;5012240;28;20398;-74
2022/01/15 11:38:37;;;;;;;36.38;20.67;;;3.40;99.90;;;;;;5012168;28;20034;-75
2022/01/15 11:41:03;;;;;;;34.40;19.23;;;4.60;99.90;;;;;;5012196;28;20030;-75
2022/01/15 11:43:31;;;;;;;34.75;19.77;;;3.50;99.90;;;;;;5012325;28;20029;-75
2022/01/15 11:46:01;;;;;;;31.83;20.27;;;3.70;99.90;;;;;;5012242;28;20026;-75
2022/01/15 11:48:35;;;;;;;32.58;18.33;;;3.60;99.90;;;;;;5011608;28;20514;-75
2022/01/15 11:51:14;;;;;;;35.30;20.08;;;3.50;99.90;;;;;;5012588;28;20074;-75
2022/01/15 11:54:00;;;;;;;38.92;20.55;;;3.70;99.90;;;;;;5012388;28;20022;-75
2022/01/15 11:56:36;;;;;;;35.55;19.17;;;4.00;99.90;;;;;;4993035;28;20652;-75
2022/01/15 11:59:25;;;;;;;33.58;19.75;;;4.00;99.90;;;;;;4992365;28;20038;-75
2022/01/15 12:01:59;;;;;;;36.05;19.90;;;3.90;99.90;;;;;;4972958;28;20039;-75
2022/01/15 12:04:30;;;;;;;35.78;20.52;;;4.10;99.90;;;;;;4998667;28;20497;-73
2022/01/15 12:07:05;;;;;;;36.90;21.13;;;4.20;99.90;;;;;;5011005;28;20037;-75
2022/01/15 12:09:33;;;;;;;35.30;21.45;;;4.30;99.90;;;;;;5010233;28;20036;-74
2022/01/15 12:12:00;;;;;;;87.10;49.83;;;4.50;99.90;;;;;;5012208;28;20022;-75
2022/01/15 12:14:58;;;;;;;33.88;19.58;;;4.60;99.90;;;;;;5011909;28;20018;-74
2022/01/15 12:17:24;;;;;;;34.10;21.05;;;4.50;99.90;;;;;;5011779;28;20026;-75
2022/01/15 12:19:54;;;;;;;34.80;22.17;;;4.50;99.90;;;;;;5011453;28;20037;-74
2022/01/15 12:22:41;;;;;;;33.60;19.80;;;4.50;99.90;;;;;;5011960;28;20084;-75
2022/01/15 12:25:08;;;;;;;34.38;21.58;;;4.40;99.90;;;;;;5010824;28;20026;-75
2022/01/15 12:27:34;;;;;;;35.75;21.67;;;4.40;99.90;;;;;;5012086;28;20045;-75
2022/01/15 12:30:06;;;;;;;36.10;20.45;;;4.40;99.90;;;;;;5011170;28;20018;-74
2022/01/15 12:32:38;;;;;;;34.75;20.35;;;4.50;99.90;;;;;;5011661;28;20022;-75
2022/01/15 12:35:05;;;;;;;35.33;21.63;;;4.40;99.90;;;;;;5011211;28;20525;-75
2022/01/15 12:37:31;;;;;;;38.15;21.98;;;3.90;99.90;;;;;;5010568;28;20079;-75
2022/01/15 12:39:57;;;;;;;38.30;21.48;;;3.90;99.90;;;;;;5011247;28;20026;-75
2022/01/15 12:42:32;;;;;;;37.92;21.73;;;4.00;99.90;;;;;;5011981;28;20040;-74
2022/01/15 12:44:58;;;;;;;38.00;22.17;;;3.90;99.90;;;;;;5011960;28;20041;-75
2022/01/15 12:47:24;;;;;;;40.90;21.75;;;4.20;99.90;;;;;;5012003;28;20177;-75
2022/01/15 12:49:55;;;;;;;35.10;21.27;;;4.20;99.90;;;;;;5011418;28;20518;-75
2022/01/15 12:52:24;;;;;;;35.75;20.52;;;4.00;99.90;;;;;;5011385;28;20041;-75
2022/01/15 12:54:51;;;;;;;37.72;21.98;;;4.10;99.90;;;;;;5011308;28;20030;-74
2022/01/15 12:57:55;;;;;;;35.65;20.42;;;3.80;99.90;;;;;;5011480;28;20033;-75
2022/01/15 13:00:30;;;;;;;39.90;22.65;;;4.90;99.90;;;;;;4992339;28;20538;-74
2022/01/15 13:02:57;;;;;;;39.17;23.88;;;3.90;99.90;;;;;;5009497;28;20081;-74
2022/01/15 13:05:25;;;;;;;42.53;24.20;;;3.90;99.90;;;;;;5010104;28;20046;-74
2022/01/15 13:08:03;;;;;;;41.63;23.83;;;3.90;99.90;;;;;;5011618;28;20394;-74